Mc Comb, Pike County, John E Lewis Field Mc Comb US
ICAO: KMCB
IATA: MCB
Category: Medium
Scheduled Services: No

Elevation: 413 ft
TransAlt. 18000 ft.

Airport Communications:
ASOS:119.025
HOUSTON CNTR:133.5
GREENWOOD RDO:122.2
CTAF/UNICOM:123.05

KMCB Zoom In..

Runways:

(A) RW 15 length 5000 ft width 100 ft
ILS 109.10 / hdg 153

(B) RW 33 length 5000 ft width 100 ft
---- / hdg 333

Location; KMCB
Day. 20 / Time. 19.53 Zulu
* Altimeter: 29.96
* Temperature: 34° c. 93.2°f.
* Wind from: 000° Speed 00 kn.
Dewpoint: 23° c.
Visibility: 10 Statute Miles.
Clouds: Scattered 4200 ft.

KMCB 201953Z AUTO 00000KT 10SM SCT042 34/23 A2996 RMK AO2 SLP138 T03440233 TSNO


Wind - Calm.

 
 
jpsmedia.com for Web Design worldairports.se 2018   terms of use